Glenfield, New York
Current Conditions -  °F | °C
As of 11:58 PM on Tuesday 21 Oct 2014 (Local Time) from KGTB Reporting Station
Overcast Overcast  
Wind Chill: 35°   Ceiling: 700
Heat Index: 42°   Visibility: 10mi
Dew Point: 41°   Wind: 15mph
Humidity: 96%   Direction: 40°NE
Pressure: 30.09"   Gusts: NA
Location:  43.71°N, 75.4°W
Report Text: KGTB 220358Z AUTO 04013KT 10SM OVC007 06/05 A3009 RMK AO2 SLP194 T00570051
Loading
Personal Weather Stations






























Interactive Weather Map
Tropical Storm Tracking
New forecast layout! Learn more

10-Day Weather Forecast

Advertisements
Track Severe Weather on mobile